Terminal Aerodrome Forecast
Issued by NWS New Orleans/Baton Rouge, LA

Home | Current Version | Previous Version | Text Only | Print | Product List | Glossary On
Versions: 1 2 3 4 5 6 7 8 9 10 11 12 13 14 15 16 17 18 19 20 21 22 23 24 25 26 27 28
000
FTUS44 KLIX 201729
TAFNEW
TAF
KNEW 201729Z 2018/2118 33014KT P6SM OVC024
     FM210300 01009KT P6SM SKC
     FM210600 04009KT P6SM SKC
     FM211200 07009KT P6SM SKC=

USA.gov is the U.S. government's official web portal to all federal, state and local government web resources and services.